Cedar Lake, IN

10:44 AM CDT on July 26, 2017 (GMT -0500)
Cedar Lake Utopia Subdivision | | Change Station
Active Advisory: Flood Warning

Elev 741 ft 41.37 °N, 87.45 °W | Updated 17 seconds ago

Partly Cloudy
Partly Cloudy
80.1 °F
Feels Like 83 °F
N
2.0
Wind Variable Wind from South
Gusts 9.0 mph

Today
High -- | Low -- °F
--% Chance of Precip.
Yesterday
High -- | Low -- °F
Precip. -- in
Pressure 30.09 in
Visibility 10.0 miles
Clouds Clear
Heat Index 83 °F
Dew Point 68 °F
Humidity 66%
Rainfall 0.00 in
Snow Depth Not available.
5:39 AM 8:12 PM
Waxing Crescent, 13% visible
METAR KIGQ 261535Z AUTO 20004KT 10SM CLR 25/18 A3009 RMK AO2 T02500183
Pressure 30.09 in
Visibility 10.0 miles
Clouds Clear
Heat Index 83 °F
Dew Point 68 °F
Humidity 66%
Rainfall 0.00 in
Snow Depth Not available.
5:39 AM 8:12 PM
Waxing Crescent, 13% visible
METAR KIGQ 261535Z AUTO 20004KT 10SM CLR 25/18 A3009 RMK AO2 T02500183

Get Your Daily Forecast Email!

Thanks for signing up!

Be on the lookout for a verification email in your inbox.

You'll start receiving severe weather alerts in your inbox..

×

10-Day Weather Forecast

Almanac

Astronomy

Jul. 26, 2017 Rise Set
Actual Time
Civil Twilight
Nautical Twilight
Astronomical Twilight
Moon
Length of Visible Light
Length of Day
Tomorrow will be .
, % of the Moon is Illuminated

Today's Extremes

State Highs State Lows

Community

WunderPhotos

Category 6

Welcome to Category 6. This is the collective home for Weather Underground's featured writeups by Dr. Jeff Masters (right), Bob Henson (left), Chris Burt, and other regular contributors.

Nearby

Air Quality

  Air Quality AQ Index Pollutant
Not available.

Snow Depth

Station Depth Elevation

Earthquake Activity

City Distance Mag. Time & Date
Minimum magnitude displayed is 2.5.

Coastal Water Temperatures

Place Temperature

Stations

Nearby Weather Stations

Station Location Temp. Windchill Dew Point Humidity Wind Precip. Elev Updated Type
                   

Watches & Warnings

Flood Warning
Issued: 9:53 AM CDT Jul. 26, 2017 – National Weather Service

The Flood Warning continues for
the Kankakee River at Shelby.
* Until Thursday morning.
* At 845 am Wednesday the stage was 9.4 feet.
* Flood stage is 9.0 feet.
* Minor flooding is occurring and minor flooding is forecast.
* Forecast... the river will continue to fall to below flood stage by
early Thursday.
* Impact... at 9.0 feet... lowland agricultural flooding begins.


Lat... Lon 4118 8722 4111 8753 4121 8756 4127 8727



Rc